Time;durP1;ratioP1;P1;durP2;ratioP2;P2;SDS_P1;SDS_P2;PMS_P1;PMS_P2;Temp;Humidity;BMP_temperature;BMP_pressure;BME280_temperature;BME280_humidity;BME280_pressure;Samples;Min_cycle;Max_cycle;Signal;HPM_P1;HPM_P2
2023/08/30 00:00:36;;;;;;;22.90;11.15;;;538.50;2406.40;;;;;;5033397;28;20385;-72
2023/08/30 00:03:02;;;;;;;21.35;11.80;;;538.50;2406.40;;;;;;5033517;28;20022;-72
2023/08/30 00:05:28;;;;;;;16.70;11.00;;;563.20;2432.00;;;;;;5033297;28;20040;-72
2023/08/30 00:07:54;;;;;;;23.80;10.48;;;563.40;2432.00;;;;;;5033332;28;20021;-72
2023/08/30 00:10:20;;;;;;;18.73;10.02;;;563.20;2432.00;;;;;;5033178;28;20052;-73
2023/08/30 00:12:45;;;;;;;16.02;10.23;;;538.50;2406.40;;;;;;5033631;28;20034;-72
2023/08/30 00:15:11;;;;;;;21.45;10.13;;;538.50;2406.40;;;;;;5032657;28;20105;-72
2023/08/30 00:17:37;;;;;;;21.95;9.38;;;538.50;2406.40;;;;;;5032527;28;20017;-72
2023/08/30 00:20:03;;;;;;;24.55;10.57;;;538.30;2406.40;;;;;;5033546;28;20474;-72
2023/08/30 00:22:29;;;;;;;16.45;9.45;;;538.50;2406.40;;;;;;5031491;28;20028;-72
2023/08/30 00:24:54;;;;;;;16.63;10.65;;;538.30;2406.40;;;;;;5032799;28;20017;-73
2023/08/30 00:27:20;;;;;;;15.50;10.10;;;538.20;2406.40;;;;;;5030971;28;20017;-73
2023/08/30 00:29:46;;;;;;;13.25;8.57;;;538.10;2406.40;;;;;;5033243;28;20025;-72
2023/08/30 00:32:12;;;;;;;16.63;10.05;;;538.10;2406.40;;;;;;5032495;28;20049;-73
2023/08/30 00:34:38;;;;;;;17.25;9.50;;;538.30;2406.40;;;;;;5032665;28;20022;-72
2023/08/30 00:37:03;;;;;;;19.92;9.05;;;538.30;2406.40;;;;;;5032586;28;20036;-71
2023/08/30 00:39:29;;;;;;;19.13;10.60;;;538.20;2406.40;;;;;;5032512;28;20013;-72
2023/08/30 00:41:55;;;;;;;16.83;9.43;;;538.20;2406.40;;;;;;5032567;28;20025;-72
2023/08/30 00:44:21;;;;;;;18.20;8.65;;;538.20;2406.40;;;;;;5032836;28;20033;-72
2023/08/30 00:46:47;;;;;;;15.15;8.52;;;538.20;2406.40;;;;;;5032569;28;20435;-72
2023/08/30 00:49:13;;;;;;;13.77;9.57;;;538.20;2406.40;;;;;;5032871;28;20104;-72
2023/08/30 00:51:39;;;;;;;19.70;9.23;;;538.40;2406.40;;;;;;5032290;28;20387;-72
2023/08/30 00:54:05;;;;;;;20.75;10.80;;;538.50;2406.40;;;;;;5032393;28;20025;-72
2023/08/30 00:56:34;;;;;;;15.75;9.55;;;538.50;2406.40;;;;;;5032743;28;20028;-72
2023/08/30 00:59:00;;;;;;;14.70;9.40;;;538.10;2406.40;;;;;;5032169;28;20026;-72
2023/08/30 01:01:26;;;;;;;16.60;9.63;;;538.00;2406.40;;;;;;5032136;28;20029;-74
2023/08/30 01:03:52;;;;;;;12.93;8.85;;;537.90;2406.40;;;;;;5032238;28;20036;-72
2023/08/30 01:06:17;;;;;;;16.13;9.27;;;538.00;2406.40;;;;;;5026987;28;20041;-72
2023/08/30 01:08:44;;;;;;;13.23;9.20;;;538.00;2406.40;;;;;;5029390;28;20071;-72
2023/08/30 01:11:43;;;;;;;18.20;9.57;;;538.00;2406.40;;;;;;5032368;28;20017;-72
2023/08/30 01:14:22;;;;;;;18.83;9.27;;;537.90;2406.40;;;;;;5026717;28;20018;-72
2023/08/30 01:16:48;;;;;;;13.70;9.20;;;538.00;2406.40;;;;;;5031479;28;20020;-71
2023/08/30 01:19:29;;;;;;;19.55;9.43;;;538.00;2406.40;;;;;;5031948;28;20053;-72
2023/08/30 01:22:16;;;;;;;15.02;9.38;;;538.00;2406.40;;;;;;5030879;28;20018;-73
2023/08/30 01:25:10;;;;;;;16.13;9.18;;;538.00;2406.40;;;;;;5031938;28;20025;-71
2023/08/30 01:27:37;;;;;;;12.95;9.23;;;538.00;2406.40;;;;;;5031769;28;20021;-72
2023/08/30 01:30:06;;;;;;;16.75;10.38;;;537.60;2406.40;;;;;;5031868;28;20339;-72
2023/08/30 01:32:35;;;;;;;18.27;9.30;;;512.90;2380.80;;;;;;5028978;28;20049;-72
2023/08/30 01:35:03;;;;;;;16.48;10.35;;;512.80;2380.80;;;;;;5030001;28;20026;-72
2023/08/30 01:37:29;;;;;;;17.40;10.32;;;512.60;2380.80;;;;;;5032034;28;20021;-72
2023/08/30 01:39:57;;;;;;;15.93;9.38;;;512.50;2380.80;;;;;;5031637;28;20045;-71
2023/08/30 01:42:25;;;;;;;21.13;10.18;;;512.30;2380.80;;;;;;5031586;28;20031;-72
2023/08/30 01:44:54;;;;;;;18.00;10.30;;;512.50;2380.80;;;;;;5031805;28;20056;-72
2023/08/30 01:47:20;;;;;;;12.35;9.82;;;512.50;2380.80;;;;;;5031720;28;20022;-72
2023/08/30 01:49:47;;;;;;;14.98;10.50;;;512.40;2380.80;;;;;;5030832;28;20024;-72
2023/08/30 01:52:14;;;;;;;16.23;11.18;;;512.30;2380.80;;;;;;5032090;28;20030;-72
2023/08/30 01:54:42;;;;;;;14.70;10.93;;;512.20;2380.80;;;;;;5025735;28;20026;-72
2023/08/30 01:57:08;;;;;;;13.50;10.00;;;512.60;2380.80;;;;;;5029222;28;20105;-75
2023/08/30 01:59:34;;;;;;;19.02;11.30;;;512.80;2380.80;;;;;;5031678;28;20581;-71
2023/08/30 02:01:59;;;;;;;16.35;10.68;;;512.90;2380.80;;;;;;5031487;28;20073;-72
2023/08/30 02:04:25;;;;;;;19.70;10.23;;;512.90;2380.80;;;;;;5031518;28;20036;-71
2023/08/30 02:07:05;;;;;;;14.20;9.77;;;537.60;2406.40;;;;;;5031931;28;20398;-72
2023/08/30 02:09:42;;;;;;;17.40;11.18;;;512.90;2380.80;;;;;;5029062;28;20014;-72
2023/08/30 02:12:14;;;;;;;17.55;11.43;;;512.90;2380.80;;;;;;5028399;28;20116;-72
2023/08/30 02:14:44;;;;;;;17.90;11.05;;;512.70;2380.80;;;;;;5031039;28;20096;-71
2023/08/30 02:17:11;;;;;;;26.58;11.07;;;512.70;2380.80;;;;;;5029068;28;20022;-72
2023/08/30 02:19:37;;;;;;;15.63;11.07;;;512.70;2380.80;;;;;;5031314;28;20027;-72
2023/08/30 02:22:03;;;;;;;14.80;10.68;;;512.70;2380.80;;;;;;5030872;28;20117;-73
2023/08/30 02:24:29;;;;;;;18.00;11.80;;;512.90;2380.80;;;;;;5030425;28;20120;-72
2023/08/30 02:26:54;;;;;;;19.77;11.68;;;537.60;2406.40;;;;;;5030076;28;20024;-72
2023/08/30 02:29:20;;;;;;;18.00;11.27;;;537.60;2406.40;;;;;;5031093;28;20382;-73
2023/08/30 02:31:46;;;;;;;19.70;11.77;;;512.90;2380.80;;;;;;5030190;28;20067;-71
2023/08/30 02:34:11;;;;;;;16.75;11.02;;;512.90;2380.80;;;;;;5030871;28;20026;-73
2023/08/30 02:36:37;;;;;;;21.30;12.07;;;512.90;2380.80;;;;;;5029687;28;20386;-73
2023/08/30 02:39:03;;;;;;;18.80;10.75;;;512.90;2380.80;;;;;;5031506;28;20057;-73
2023/08/30 02:41:29;;;;;;;17.25;11.45;;;537.60;2406.40;;;;;;5028246;28;20033;-72
2023/08/30 02:43:54;;;;;;;18.90;12.30;;;512.90;2380.80;;;;;;5066228;28;20037;-71
2023/08/30 02:46:20;;;;;;;15.98;11.90;;;537.60;2406.40;;;;;;5034759;28;20026;-72
2023/08/30 02:48:46;;;;;;;20.65;11.50;;;512.90;2380.80;;;;;;5032895;28;20052;-71
2023/08/30 02:51:11;;;;;;;18.63;11.32;;;512.80;2380.80;;;;;;5033903;28;20028;-71
2023/08/30 02:53:37;;;;;;;19.95;13.27;;;512.60;2380.80;;;;;;5034044;28;20028;-75
2023/08/30 02:56:03;;;;;;;16.83;12.15;;;512.50;2380.80;;;;;;5034048;28;20386;-72
2023/08/30 02:58:28;;;;;;;19.50;12.82;;;512.30;2380.80;;;;;;5034226;28;20384;-74
2023/08/30 03:00:54;;;;;;;21.30;10.75;;;512.40;2380.80;;;;;;5033801;28;20041;-72
2023/08/30 03:03:20;;;;;;;17.67;11.77;;;512.60;2380.80;;;;;;5033914;28;20025;-71
2023/08/30 03:05:45;;;;;;;19.38;12.75;;;512.70;2380.80;;;;;;5033665;28;20009;-72
2023/08/30 03:08:11;;;;;;;16.75;12.65;;;512.60;2380.80;;;;;;5033666;28;20021;-72
2023/08/30 03:10:37;;;;;;;17.02;12.48;;;512.70;2380.80;;;;;;5034464;28;20068;-72
2023/08/30 03:13:03;;;;;;;22.10;12.70;;;512.70;2380.80;;;;;;5031626;28;20075;-72
2023/08/30 03:15:32;;;;;;;18.42;12.77;;;512.60;2380.80;;;;;;5033739;28;20017;-71
2023/08/30 03:17:59;;;;;;;22.92;12.85;;;512.60;2380.80;;;;;;5026200;28;20515;-73
2023/08/30 03:20:24;;;;;;;17.30;11.73;;;512.40;2380.80;;;;;;5033602;28;20021;-72
2023/08/30 03:22:50;;;;;;;18.50;12.65;;;512.40;2380.80;;;;;;5033804;28;20100;-72
2023/08/30 03:25:16;;;;;;;19.75;12.70;;;512.60;2380.80;;;;;;5033308;28;20022;-72
2023/08/30 03:27:43;;;;;;;23.38;12.05;;;512.80;2380.80;;;;;;5033513;28;20025;-72
2023/08/30 03:30:10;;;;;;;21.55;12.65;;;512.90;2380.80;;;;;;5033905;28;20100;-72
2023/08/30 03:32:37;;;;;;;19.90;12.82;;;512.90;2380.80;;;;;;5031448;28;20049;-72
2023/08/30 03:35:03;;;;;;;25.10;13.18;;;537.70;2406.40;;;;;;5033276;28;20017;-71
2023/08/30 03:37:29;;;;;;;18.90;13.73;;;537.60;2406.40;;;;;;5033515;28;20113;-71
2023/08/30 03:39:55;;;;;;;18.17;13.52;;;512.90;2380.80;;;;;;5032898;28;20029;-72
2023/08/30 03:42:20;;;;;;;18.02;13.70;;;512.70;2380.80;;;;;;5033067;28;20457;-72
2023/08/30 03:44:46;;;;;;;21.15;13.38;;;512.80;2380.80;;;;;;5033594;28;20378;-73
2023/08/30 03:47:12;;;;;;;23.80;12.32;;;537.70;2406.40;;;;;;5032831;28;20104;-73
2023/08/30 03:49:37;;;;;;;20.23;12.05;;;537.90;2406.40;;;;;;5033206;28;20020;-72
2023/08/30 03:52:03;;;;;;;20.95;14.27;;;538.10;2406.40;;;;;;5033456;28;20029;-73
2023/08/30 03:54:29;;;;;;;19.52;12.10;;;538.20;2406.40;;;;;;5032746;28;20116;-71
2023/08/30 03:56:55;;;;;;;26.40;17.85;;;538.20;2406.40;;;;;;5032862;28;20061;-76
2023/08/30 03:59:22;;;;;;;23.73;16.95;;;538.30;2406.40;;;;;;5032799;28;20466;-72
2023/08/30 04:01:48;;;;;;;22.52;15.02;;;538.20;2406.40;;;;;;5032789;28;20084;-72
2023/08/30 04:04:14;;;;;;;21.55;12.93;;;538.10;2406.40;;;;;;5032890;28;20474;-72
2023/08/30 04:06:40;;;;;;;19.92;13.88;;;538.00;2406.40;;;;;;5033173;28;20378;-74
2023/08/30 04:09:06;;;;;;;20.83;13.85;;;538.00;2406.40;;;;;;5032733;28;20025;-73
2023/08/30 04:11:32;;;;;;;37.13;31.85;;;538.00;2406.40;;;;;;5021586;28;20033;-72
2023/08/30 04:13:58;;;;;;;35.13;26.75;;;538.10;2406.40;;;;;;5032878;28;20100;-72
2023/08/30 04:16:24;;;;;;;23.20;17.88;;;537.80;2406.40;;;;;;5032393;28;20021;-71
2023/08/30 04:18:49;;;;;;;41.17;29.55;;;538.00;2406.40;;;;;;5032454;28;20034;-73
2023/08/30 04:21:15;;;;;;;35.97;27.60;;;538.10;2406.40;;;;;;5031717;28;20026;-72
2023/08/30 04:23:41;;;;;;;35.20;27.42;;;538.20;2406.40;;;;;;5036668;28;20040;-71
2023/08/30 04:26:06;;;;;;;36.63;22.63;;;538.20;2406.40;;;;;;5042266;28;20095;-71
2023/08/30 04:28:32;;;;;;;25.25;19.90;;;538.20;2406.40;;;;;;5042614;28;20071;-72
2023/08/30 04:30:57;;;;;;;28.88;16.23;;;538.30;2406.40;;;;;;5043221;28;20091;-71
2023/08/30 04:33:24;;;;;;;20.45;12.95;;;538.50;2406.40;;;;;;5038839;28;20083;-71
2023/08/30 04:35:53;;;;;;;17.63;12.85;;;563.20;2432.00;;;;;;5035007;28;20026;-71
2023/08/30 04:38:22;;;;;;;21.23;14.02;;;563.40;2432.00;;;;;;5043506;28;20025;-72
2023/08/30 04:40:48;;;;;;;17.48;12.43;;;563.40;2432.00;;;;;;5038117;28;20048;-71
2023/08/30 04:43:14;;;;;;;21.73;13.70;;;563.50;2432.00;;;;;;5040841;28;20041;-72
2023/08/30 04:45:40;;;;;;;25.52;14.32;;;563.50;2432.00;;;;;;5039755;28;20116;-71
2023/08/30 04:48:06;;;;;;;20.05;13.82;;;563.50;2432.00;;;;;;5037256;28;20047;-73
2023/08/30 04:50:31;;;;;;;20.63;13.95;;;563.50;2432.00;;;;;;5038790;28;20018;-72
2023/08/30 04:52:58;;;;;;;23.42;14.05;;;563.50;2432.00;;;;;;5036234;28;20504;-73
2023/08/30 04:55:29;;;;;;;20.73;13.57;;;563.40;2432.00;;;;;;5038430;28;20017;-75
2023/08/30 04:57:55;;;;;;;22.52;14.00;;;563.30;2432.00;;;;;;5044827;28;20029;-73
2023/08/30 05:00:21;;;;;;;24.60;14.65;;;563.20;2432.00;;;;;;5033729;28;20485;-74
2023/08/30 05:02:46;;;;;;;22.05;14.93;;;563.30;2432.00;;;;;;5040358;28;20102;-72
2023/08/30 05:05:13;;;;;;;22.20;15.15;;;563.30;2432.00;;;;;;5040520;28;20037;-73
2023/08/30 05:07:39;;;;;;;25.17;16.83;;;538.50;2406.40;;;;;;5039465;28;20473;-73
2023/08/30 05:10:06;;;;;;;19.30;15.13;;;563.20;2432.00;;;;;;5047347;28;20116;-71
2023/08/30 05:12:33;;;;;;;24.48;15.55;;;563.30;2432.00;;;;;;5037186;28;20358;-73
2023/08/30 05:14:59;;;;;;;22.20;15.10;;;563.60;2432.00;;;;;;5039011;28;20080;-73
2023/08/30 05:17:25;;;;;;;22.25;15.65;;;563.50;2432.00;;;;;;5037070;28;20072;-72
2023/08/30 05:19:50;;;;;;;28.13;16.08;;;563.50;2432.00;;;;;;5040534;28;20054;-72
2023/08/30 05:22:16;;;;;;;20.00;13.80;;;563.50;2432.00;;;;;;5043164;28;20488;-71
2023/08/30 05:24:42;;;;;;;18.70;13.90;;;563.50;2432.00;;;;;;5038226;28;20522;-72
2023/08/30 05:27:08;;;;;;;24.00;14.57;;;563.60;2432.00;;;;;;5040284;28;20465;-71
2023/08/30 05:29:34;;;;;;;20.48;13.52;;;563.60;2432.00;;;;;;5036200;28;20023;-72
2023/08/30 05:31:59;;;;;;;22.55;14.25;;;563.50;2432.00;;;;;;5039292;28;20081;-72
2023/08/30 05:34:26;;;;;;;22.88;14.32;;;563.40;2432.00;;;;;;5035344;28;20025;-71
2023/08/30 05:36:53;;;;;;;24.70;14.70;;;563.50;2432.00;;;;;;5035468;28;20406;-72
2023/08/30 05:39:18;;;;;;;20.35;14.85;;;563.60;2432.00;;;;;;5039668;28;20026;-71
2023/08/30 05:41:44;;;;;;;24.48;15.02;;;563.60;2432.00;;;;;;5038027;28;20018;-73
2023/08/30 05:44:10;;;;;;;21.75;14.70;;;563.80;2432.00;;;;;;5037843;28;20034;-72
2023/08/30 05:46:36;;;;;;;24.63;15.15;;;564.00;2432.00;;;;;;5044534;28;20025;-72
2023/08/30 05:49:02;;;;;;;24.80;16.92;;;564.10;2432.00;;;;;;5040026;28;20385;-71
2023/08/30 05:51:29;;;;;;;22.30;14.50;;;588.80;2432.00;;;;;;5038069;28;20021;-71
2023/08/30 05:53:54;;;;;;;20.85;14.68;;;589.00;2432.00;;;;;;5036879;28;20033;-72
2023/08/30 05:56:20;;;;;;;20.63;14.35;;;589.10;2432.00;;;;;;5044510;28;20017;-72
2023/08/30 05:58:46;;;;;;;20.00;14.55;;;589.20;2432.00;;;;;;5040089;28;20452;-71
2023/08/30 06:01:12;;;;;;;24.25;15.90;;;589.20;2432.00;;;;;;5037530;28;20037;-72
2023/08/30 06:03:37;;;;;;;23.08;14.35;;;589.20;2432.00;;;;;;5044944;28;20026;-73
2023/08/30 06:06:03;;;;;;;19.58;13.57;;;589.20;2432.00;;;;;;5041207;28;20029;-70
2023/08/30 06:08:29;;;;;;;22.70;15.55;;;589.40;2432.00;;;;;;5042865;28;20104;-72
2023/08/30 06:10:55;;;;;;;19.65;13.77;;;589.60;2432.00;;;;;;5036910;28;20021;-72
2023/08/30 06:13:20;;;;;;;24.35;14.65;;;589.70;2432.00;;;;;;5046479;28;20037;-73
2023/08/30 06:15:51;;;;;;;20.08;14.15;;;589.70;2432.00;;;;;;5045083;28;20033;-71
2023/08/30 06:18:16;;;;;;;18.15;13.27;;;614.40;2432.00;;;;;;5033393;28;20032;-73
2023/08/30 06:20:42;;;;;;;21.15;13.98;;;614.40;2432.00;;;;;;5045012;28;20495;-72
2023/08/30 06:23:08;;;;;;;23.92;13.75;;;614.50;2432.00;;;;;;5045377;28;20024;-72
2023/08/30 06:25:33;;;;;;;23.45;13.77;;;614.60;2432.00;;;;;;5049625;28;20104;-72
2023/08/30 06:28:02;;;;;;;22.02;13.00;;;614.40;2432.00;;;;;;5040161;28;20500;-73
2023/08/30 06:30:29;;;;;;;22.00;13.30;;;614.60;2432.00;;;;;;5048041;28;20481;-73
2023/08/30 06:32:55;;;;;;;20.80;13.05;;;614.60;2432.00;;;;;;5045893;28;20061;-73
2023/08/30 06:35:21;;;;;;;19.40;14.55;;;614.60;2432.00;;;;;;5046054;28;20040;-72
2023/08/30 06:37:47;;;;;;;20.80;13.05;;;614.50;2432.00;;;;;;5044840;28;20469;-72
2023/08/30 06:40:12;;;;;;;23.05;12.43;;;614.40;2432.00;;;;;;5039301;28;20147;-71
2023/08/30 06:42:38;;;;;;;19.25;12.73;;;589.70;2432.00;;;;;;5044035;28;20032;-73
2023/08/30 06:45:05;;;;;;;21.77;14.18;;;614.50;2432.00;;;;;;5044136;28;20557;-72
2023/08/30 06:47:30;;;;;;;17.50;12.48;;;614.70;2432.00;;;;;;5041847;28;20033;-72
2023/08/30 06:49:56;;;;;;;17.13;13.00;;;614.50;2432.00;;;;;;5041512;28;20023;-73
2023/08/30 06:52:22;;;;;;;18.83;11.63;;;614.50;2432.00;;;;;;5039816;28;20142;-72
2023/08/30 06:54:48;;;;;;;17.10;12.85;;;614.40;2432.00;;;;;;5047071;28;20075;-72
2023/08/30 06:57:14;;;;;;;20.73;12.57;;;614.40;2432.00;;;;;;5042376;28;20257;-72
2023/08/30 06:59:39;;;;;;;28.55;12.95;;;614.40;2432.00;;;;;;5037424;28;20029;-72
2023/08/30 07:02:06;;;;;;;20.77;12.95;;;589.70;2432.00;;;;;;5045001;28;20367;-72
2023/08/30 07:04:31;;;;;;;20.67;12.63;;;589.70;2432.00;;;;;;5036295;28;20016;-72
2023/08/30 07:06:57;;;;;;;17.63;11.57;;;589.70;2432.00;;;;;;5038253;28;20033;-72
2023/08/30 07:09:28;;;;;;;17.38;12.35;;;589.70;2432.00;;;;;;5043287;28;20021;-71
2023/08/30 07:11:57;;;;;;;15.50;11.55;;;589.60;2432.00;;;;;;5035688;28;20057;-71
2023/08/30 07:14:22;;;;;;;16.88;10.63;;;589.50;2432.00;;;;;;5035461;28;20573;-72
2023/08/30 07:16:49;;;;;;;26.63;11.93;;;589.30;2432.00;;;;;;5040626;28;20029;-71
2023/08/30 07:19:15;;;;;;;24.02;10.68;;;589.40;2432.00;;;;;;5041642;28;20030;-72
2023/08/30 07:21:42;;;;;;;15.68;10.68;;;589.50;2432.00;;;;;;5038096;28;20155;-72
2023/08/30 07:24:08;;;;;;;21.73;11.50;;;589.50;2432.00;;;;;;5046332;28;20382;-71
2023/08/30 07:26:34;;;;;;;15.80;10.80;;;589.50;2432.00;;;;;;5038710;28;20025;-72
2023/08/30 07:29:00;;;;;;;24.75;11.57;;;589.50;2432.00;;;;;;5042933;28;20401;-73
2023/08/30 07:31:26;;;;;;;21.27;11.30;;;589.50;2432.00;;;;;;5041218;28;20442;-72
2023/08/30 07:33:51;;;;;;;18.65;10.32;;;589.50;2432.00;;;;;;5039414;28;20036;-72
2023/08/30 07:36:17;;;;;;;20.23;10.65;;;589.30;2432.00;;;;;;5041203;28;20018;-72
2023/08/30 07:38:43;;;;;;;14.55;10.75;;;589.30;2432.00;;;;;;5041253;28;20437;-71
2023/08/30 07:41:09;;;;;;;20.48;10.35;;;589.20;2432.00;;;;;;5039895;28;20032;-71
2023/08/30 07:43:35;;;;;;;22.63;11.25;;;589.30;2432.00;;;;;;5044506;28;20478;-71
2023/08/30 07:46:01;;;;;;;18.02;9.95;;;589.40;2432.00;;;;;;5043126;28;20116;-71
2023/08/30 07:48:26;;;;;;;19.63;11.45;;;589.40;2432.00;;;;;;5041798;28;20017;-72
2023/08/30 07:50:52;;;;;;;19.98;12.20;;;589.40;2432.00;;;;;;5034633;28;20489;-71
2023/08/30 07:53:18;;;;;;;25.00;11.70;;;589.30;2432.00;;;;;;5043093;28;20476;-71
2023/08/30 07:55:51;;;;;;;17.35;11.68;;;589.40;2432.00;;;;;;5039293;28;20385;-71
2023/08/30 07:58:20;;;;;;;27.00;12.90;;;589.40;2432.00;;;;;;5037818;28;20033;-71
2023/08/30 08:00:45;;;;;;;17.02;13.98;;;589.50;2432.00;;;;;;5044056;28;20032;-71
2023/08/30 08:03:11;;;;;;;20.73;14.63;;;589.60;2432.00;;;;;;5038443;28;20033;-71
2023/08/30 08:05:37;;;;;;;21.90;12.30;;;589.60;2432.00;;;;;;5039279;28;20060;-70
2023/08/30 08:08:03;;;;;;;28.95;14.10;;;589.60;2432.00;;;;;;5047954;28;20358;-72
2023/08/30 08:10:35;;;;;;;23.92;13.70;;;589.60;2432.00;;;;;;5038695;28;20432;-72
2023/08/30 08:13:00;;;;;;;20.77;14.32;;;589.50;2432.00;;;;;;5030782;28;20120;-73
2023/08/30 08:15:28;;;;;;;20.77;14.65;;;589.60;2432.00;;;;;;5037048;28;20105;-72
2023/08/30 08:17:54;;;;;;;22.73;14.23;;;589.50;2432.00;;;;;;5039094;28;20351;-71
2023/08/30 08:20:20;;;;;;;22.73;15.98;;;589.30;2432.00;;;;;;5044079;28;20032;-71
2023/08/30 08:22:45;;;;;;;25.80;15.88;;;589.40;2432.00;;;;;;5041723;28;20473;-72
2023/08/30 08:25:11;;;;;;;26.83;16.52;;;589.30;2432.00;;;;;;5040602;28;20466;-71
2023/08/30 08:27:38;;;;;;;26.40;15.90;;;589.50;2432.00;;;;;;5034280;28;20030;-71
2023/08/30 08:30:04;;;;;;;24.38;16.17;;;589.50;2432.00;;;;;;5039080;28;20029;-71
2023/08/30 08:32:31;;;;;;;22.50;16.25;;;589.60;2432.00;;;;;;5042164;28;20053;-70
2023/08/30 08:34:57;;;;;;;20.17;14.15;;;589.60;2432.00;;;;;;5043912;28;20017;-70
2023/08/30 08:37:23;;;;;;;24.75;15.65;;;589.60;2432.00;;;;;;5038051;28;20018;-71
2023/08/30 08:39:50;;;;;;;25.13;14.00;;;614.90;2432.00;;;;;;5039209;28;20018;-71
2023/08/30 08:42:19;;;;;;;28.20;16.08;;;615.10;2432.00;;;;;;5033150;28;20439;-74
2023/08/30 08:44:50;;;;;;;21.95;13.88;;;640.20;2432.00;;;;;;5045115;28;20075;-71
2023/08/30 08:47:19;;;;;;;23.55;14.30;;;640.50;2432.00;;;;;;5038503;28;20034;-74
2023/08/30 08:49:45;;;;;;;21.33;13.10;;;640.60;2432.00;;;;;;5038763;28;20091;-71
2023/08/30 08:52:11;;;;;;;19.02;13.07;;;640.70;2432.00;;;;;;5038668;28;20026;-71
2023/08/30 08:54:40;;;;;;;27.65;13.05;;;665.60;2432.00;;;;;;5039844;28;20026;-70
2023/08/30 08:57:07;;;;;;;31.55;11.65;;;640.70;2432.00;;;;;;5041421;28;20021;-71
2023/08/30 08:59:33;;;;;;;20.60;10.82;;;665.60;2432.00;;;;;;5038469;28;20035;-71
2023/08/30 09:02:00;;;;;;;18.02;12.18;;;665.60;2432.00;;;;;;5041408;28;20029;-73
2023/08/30 09:04:28;;;;;;;22.42;14.90;;;665.70;2432.00;;;;;;5042182;28;20028;-72
2023/08/30 09:06:54;;;;;;;21.23;14.43;;;640.80;2432.00;;;;;;5042662;28;20018;-72
2023/08/30 09:09:20;;;;;;;21.88;14.27;;;640.50;2432.00;;;;;;5036280;28;20017;-73
2023/08/30 09:11:46;;;;;;;16.90;12.15;;;640.40;2432.00;;;;;;5039522;28;20056;-72
2023/08/30 09:14:12;;;;;;;21.65;9.90;;;640.30;2432.00;;;;;;5037629;28;20493;-72
2023/08/30 09:16:38;;;;;;;13.00;9.52;;;640.20;2432.00;;;;;;5044499;28;20033;-73
2023/08/30 09:19:04;;;;;;;13.35;8.77;;;640.10;2432.00;;;;;;5048444;28;20025;-73
2023/08/30 09:21:33;;;;;;;16.33;10.20;;;640.00;2432.00;;;;;;5034023;28;20021;-72
2023/08/30 09:24:00;;;;;;;15.93;9.13;;;615.30;2432.00;;;;;;5041085;28;20025;-73
2023/08/30 09:26:31;;;;;;;12.25;8.85;;;640.00;2432.00;;;;;;5038431;28;20031;-73
2023/08/30 09:29:10;;;;;;;20.42;9.05;;;640.10;2432.00;;;;;;5041403;28;20021;-73
2023/08/30 09:31:37;;;;;;;16.83;9.90;;;640.20;2432.00;;;;;;5040752;28;20045;-72
2023/08/30 09:34:04;;;;;;;14.80;9.15;;;640.30;2432.00;;;;;;5037136;28;20116;-72
2023/08/30 09:36:37;;;;;;;11.20;8.25;;;640.30;2432.00;;;;;;5040140;28;20021;-73
2023/08/30 09:39:09;;;;;;;14.07;9.60;;;640.20;2432.00;;;;;;5039376;28;20044;-72
2023/08/30 09:41:41;;;;;;;17.13;10.13;;;640.30;2432.00;;;;;;5038805;28;20477;-74
2023/08/30 09:44:10;;;;;;;16.23;11.57;;;640.20;2432.00;;;;;;5034699;28;20032;-73
2023/08/30 09:46:49;;;;;;;18.50;10.80;;;640.20;2432.00;;;;;;5039428;28;20024;-73
2023/08/30 09:49:15;;;;;;;16.58;11.68;;;640.30;2432.00;;;;;;5044659;28;20044;-74
2023/08/30 09:51:42;;;;;;;18.88;12.68;;;640.40;2432.00;;;;;;5043911;28;20115;-73
2023/08/30 09:54:15;;;;;;;20.60;11.73;;;640.20;2432.00;;;;;;5046074;28;20029;-73
2023/08/30 09:56:43;;;;;;;15.50;11.15;;;640.30;2432.00;;;;;;5039392;28;20014;-73
2023/08/30 09:59:15;;;;;;;18.05;11.02;;;640.40;2432.00;;;;;;5042530;28;20105;-73
2023/08/30 10:01:43;;;;;;;20.40;10.95;;;640.60;2432.00;;;;;;5048441;28;20083;-73
2023/08/30 10:04:09;;;;;;;17.65;12.00;;;640.60;2432.00;;;;;;5039156;28;20056;-73
2023/08/30 10:06:38;;;;;;;20.05;12.90;;;640.70;2432.00;;;;;;5045381;28;20041;-73
2023/08/30 10:09:07;;;;;;;17.25;11.10;;;640.70;2432.00;;;;;;5044440;28;20032;-73
2023/08/30 10:11:37;;;;;;;14.52;10.10;;;640.70;2432.00;;;;;;5040971;28;20492;-74
2023/08/30 10:14:06;;;;;;;18.10;9.20;;;640.70;2432.00;;;;;;5038545;28;20530;-72
2023/08/30 10:16:44;;;;;;;21.48;8.93;;;640.70;2432.00;;;;;;5046166;28;20029;-72
2023/08/30 10:19:20;;;;;;;13.30;8.57;;;640.60;2432.00;;;;;;5040254;28;20482;-74
2023/08/30 10:21:59;;;;;;;11.88;8.10;;;640.30;2432.00;;;;;;5043733;28;20025;-72
2023/08/30 10:24:26;;;;;;;22.00;15.98;;;640.40;2432.00;;;;;;5032399;28;20025;-72
2023/08/30 10:26:53;;;;;;;16.60;10.02;;;640.50;2432.00;;;;;;5035676;28;20026;-74
2023/08/30 10:29:20;;;;;;;15.13;8.30;;;640.60;2432.00;;;;;;5039795;28;20481;-75
2023/08/30 10:31:46;;;;;;;16.27;6.47;;;665.60;2432.00;;;;;;5040741;28;20136;-73
2023/08/30 10:34:17;;;;;;;16.98;6.60;;;640.90;2432.00;;;;;;5043241;28;20136;-72
2023/08/30 10:36:43;;;;;;;18.55;6.72;;;640.90;2432.00;;;;;;5047876;28;20170;-72
2023/08/30 10:39:14;;;;;;;12.20;6.32;;;640.90;2432.00;;;;;;5040639;28;20025;-72
2023/08/30 10:41:55;;;;;;;14.13;7.50;;;640.90;2432.00;;;;;;5038642;28;20017;-72
2023/08/30 10:44:22;;;;;;;11.50;7.03;;;640.90;2432.00;;;;;;5042848;28;20026;-72
2023/08/30 10:46:53;;;;;;;13.00;7.60;;;640.70;2432.00;;;;;;5045406;28;20020;-73
2023/08/30 10:49:19;;;;;;;9.98;7.80;;;640.70;2432.00;;;;;;5039280;28;20037;-72
2023/08/30 10:51:45;;;;;;;20.58;8.00;;;640.70;2432.00;;;;;;5047825;28;20059;-73
2023/08/30 10:54:15;;;;;;;14.48;8.55;;;640.70;2432.00;;;;;;5038763;28;20052;-73
2023/08/30 10:57:13;;;;;;;13.68;10.32;;;640.70;2432.00;;;;;;5038850;28;20013;-72
2023/08/30 10:59:40;;;;;;;14.43;9.90;;;640.90;2432.00;;;;;;5044893;28;20033;-73
2023/08/30 11:02:06;;;;;;;19.80;12.00;;;665.60;2432.00;;;;;;5040882;28;20025;-74
2023/08/30 11:04:32;;;;;;;21.40;13.85;;;665.70;2432.00;;;;;;5025785;28;20159;-72
2023/08/30 11:06:58;;;;;;;21.70;14.77;;;666.00;2432.00;;;;;;5026599;28;20025;-73
2023/08/30 11:09:25;;;;;;;27.17;16.45;;;666.20;2432.00;;;;;;5010798;28;20037;-73
2023/08/30 11:11:51;;;;;;;21.15;13.73;;;666.10;2432.00;;;;;;5008707;28;20449;-72
2023/08/30 11:14:18;;;;;;;23.45;14.65;;;666.30;2432.00;;;;;;5049569;28;20074;-73
2023/08/30 11:16:44;;;;;;;26.35;15.32;;;666.50;2432.00;;;;;;5038223;28;20091;-73
2023/08/30 11:19:11;;;;;;;15.93;14.15;;;666.20;2432.00;;;;;;5042762;28;20474;-72
2023/08/30 11:21:39;;;;;;;23.80;14.20;;;666.00;2432.00;;;;;;5045269;28;20034;-73
2023/08/30 11:24:06;;;;;;;20.13;14.27;;;665.90;2432.00;;;;;;5041248;28;20440;-73
2023/08/30 11:26:33;;;;;;;20.10;13.90;;;665.70;2432.00;;;;;;5042546;28;20028;-71
2023/08/30 11:29:04;;;;;;;15.90;11.18;;;640.90;2432.00;;;;;;5041733;28;20033;-71
2023/08/30 11:31:30;;;;;;;14.93;9.82;;;640.70;2432.00;;;;;;5024427;28;20044;-71
2023/08/30 11:33:57;;;;;;;10.18;7.78;;;640.50;2432.00;;;;;;5042818;28;20068;-71
2023/08/30 11:36:31;;;;;;;12.00;7.53;;;640.40;2432.00;;;;;;5040335;28;20405;-71
2023/08/30 11:38:57;;;;;;;8.75;5.95;;;640.20;2432.00;;;;;;5042457;28;20473;-70
2023/08/30 11:41:25;;;;;;;9.10;5.63;;;640.00;2432.00;;;;;;5041781;28;20048;-71
2023/08/30 11:43:54;;;;;;;7.82;5.53;;;615.30;2432.00;;;;;;5040143;28;20109;-70
2023/08/30 11:46:21;;;;;;;8.45;5.88;;;615.00;2432.00;;;;;;5043587;28;20033;-70
2023/08/30 11:48:48;;;;;;;8.40;6.00;;;614.80;2432.00;;;;;;5043488;28;20021;-71
2023/08/30 11:51:14;;;;;;;7.32;5.65;;;614.80;2432.00;;;;;;5035838;28;20022;-72
2023/08/30 11:53:40;;;;;;;8.48;5.65;;;614.60;2432.00;;;;;;5043212;28;20040;-71
2023/08/30 11:56:07;;;;;;;9.00;5.90;;;614.60;2432.00;;;;;;5037247;28;20037;-72
2023/08/30 11:58:34;;;;;;;8.50;6.07;;;614.50;2432.00;;;;;;5038454;28;20025;-72
2023/08/30 12:01:01;;;;;;;14.10;6.32;;;614.60;2432.00;;;;;;5043090;28;20034;-71